Time;durP1;ratioP1;P1;durP2;ratioP2;P2;SDS_P1;SDS_P2;PMS_P1;PMS_P2;Temp;Humidity;BMP_temperature;BMP_pressure;BME280_temperature;BME280_humidity;BME280_pressure;Samples;Min_cycle;Max_cycle;Signal;HPM_P1;HPM_P2
2022/04/28 00:00:43;;;;;;;;;;;9.10;99.90;;;;;;5093697;28;19924;-61
2022/04/28 00:03:10;;;;;;;;;;;9.00;99.90;;;;;;5093665;28;19920;-61
2022/04/28 00:05:36;;;;;;;;;;;9.00;99.90;;;;;;5093603;28;19924;-61
2022/04/28 00:08:02;;;;;;;;;;;9.00;99.90;;;;;;5093592;28;19920;-61
2022/04/28 00:10:27;;;;;;;;;;;9.10;99.90;;;;;;5075227;28;20370;-61
2022/04/28 00:12:53;;;;;;;;;;;9.00;99.90;;;;;;5093530;28;19924;-61
2022/04/28 00:15:18;;;;;;;;;;;9.00;99.90;;;;;;5093790;28;20017;-61
2022/04/28 00:17:44;;;;;;;;;;;9.00;99.90;;;;;;5058445;28;19925;-61
2022/04/28 00:20:10;;;;;;;;;;;9.00;99.90;;;;;;5075393;28;19924;-61
2022/04/28 00:22:35;;;;;;;;;;;9.00;99.90;;;;;;5093002;28;19924;-61
2022/04/28 00:25:02;;;;;;;;;;;9.00;99.90;;;;;;5093494;28;19927;-61
2022/04/28 00:27:29;;;;;;;;;;;9.10;99.90;;;;;;5093059;28;19924;-61
2022/04/28 00:29:55;;;;;;;;;;;9.10;99.90;;;;;;5093368;28;20289;-62
2022/04/28 00:32:21;;;;;;;;;;;9.10;99.90;;;;;;5074352;28;19969;-62
2022/04/28 00:34:46;;;;;;;;;;;9.00;99.90;;;;;;5093237;28;20018;-62
2022/04/28 00:37:13;;;;;;;;;;;9.00;99.90;;;;;;5093185;28;19920;-62
2022/04/28 00:39:39;;;;;;;;;;;9.00;99.90;;;;;;5093342;28;19931;-62
2022/04/28 00:42:08;;;;;;;;;;;8.90;99.90;;;;;;5093243;28;19924;-62
2022/04/28 00:44:34;;;;;;;;;;;8.80;99.90;;;;;;5093255;28;20014;-62
2022/04/28 00:46:59;;;;;;;;;;;8.90;99.90;;;;;;5075133;28;20014;-62
2022/04/28 00:52:14;;;;;;;;;;;8.90;99.90;;;;;;4975410;28;19941;-60
2022/04/28 00:54:41;;;;;;;;;;;8.90;99.90;;;;;;4991167;28;20055;-59
2022/04/28 00:57:06;;;;;;;;;;;8.90;99.90;;;;;;4974832;28;19921;-60
2022/04/28 00:59:32;;;;;;;;;;;8.90;99.90;;;;;;4991254;28;19972;-59
2022/04/28 01:01:57;;;;;;;;;;;8.90;99.90;;;;;;4991188;28;19922;-60
2022/04/28 01:04:23;;;;;;;;;;;8.90;99.90;;;;;;4991002;28;19928;-60
2022/04/28 01:06:52;;;;;;;;;;;8.90;99.90;;;;;;4991122;28;19928;-59
2022/04/28 01:09:17;;;;;;;;;;;8.90;99.90;;;;;;4991087;28;19926;-59
2022/04/28 01:11:44;;;;;;;;;;;8.90;99.90;;;;;;4991033;28;19921;-59
2022/04/28 01:14:09;;;;;;;;;;;8.90;99.90;;;;;;4990976;28;19925;-59
2022/04/28 01:16:35;;;;;;;;;;;8.90;99.90;;;;;;4991002;28;20069;-60
2022/04/28 01:19:00;;;;;;;;;;;8.90;99.90;;;;;;4991031;28;19992;-59
2022/04/28 01:21:26;;;;;;;;;;;8.80;99.90;;;;;;4990930;28;19929;-60
2022/04/28 01:23:51;;;;;;;;;;;8.80;99.90;;;;;;4990309;28;19929;-59
2022/04/28 01:26:18;;;;;;;;;;;8.80;99.90;;;;;;4990787;28;20388;-60
2022/04/28 01:28:43;;;;;;;;;;;8.80;99.90;;;;;;5021350;28;19920;-59
2022/04/28 01:31:09;;;;;;;;;;;8.80;99.90;;;;;;5092497;28;19920;-60
2022/04/28 01:33:34;;;;;;;;;;;8.90;99.90;;;;;;5092205;28;20274;-59
2022/04/28 01:36:00;;;;;;;;;;;8.90;99.90;;;;;;5092583;28;19927;-60
2022/04/28 01:38:26;;;;;;;;;;;8.90;99.90;;;;;;5074993;28;19924;-59
2022/04/28 01:40:51;;;;;;;;;;;8.80;99.90;;;;;;5092363;28;19927;-59
2022/04/28 01:43:17;;;;;;;;;;;8.80;99.90;;;;;;5092294;28;19928;-59
2022/04/28 01:45:42;;;;;;;;;;;8.80;99.90;;;;;;5096286;28;19928;-60
2022/04/28 01:48:08;;;;;;;;;;;8.80;99.90;;;;;;5096402;28;19920;-60
2022/04/28 01:50:34;;;;;;;;;;;8.90;99.90;;;;;;5077544;28;19986;-59
2022/04/28 01:55:44;;;;;;;;;;;8.90;99.90;;;;;;5096165;28;19927;-59
2022/04/28 01:58:10;;;;;;;;;;;8.80;99.90;;;;;;5096199;28;19920;-59
2022/04/28 02:00:35;;;;;;;;;;;8.90;99.90;;;;;;5096320;28;20341;-59
2022/04/28 02:03:01;;;;;;;;;;;8.90;99.90;;;;;;5096210;28;19924;-59
2022/04/28 02:05:27;;;;;;;;;;;8.90;99.90;;;;;;5096069;28;19967;-60
2022/04/28 02:07:52;;;;;;;;;;;8.90;99.90;;;;;;5096096;28;19920;-59
2022/04/28 02:10:18;;;;;;;;;;;8.90;99.90;;;;;;5096355;28;19945;-59
2022/04/28 02:12:43;;;;;;;;;;;8.90;99.90;;;;;;5096039;28;19950;-61
2022/04/28 02:15:09;;;;;;;;;;;8.90;99.90;;;;;;5096604;28;19920;-61
2022/04/28 02:17:36;;;;;;;;;;;8.90;99.90;;;;;;5077730;28;20007;-61
2022/04/28 02:20:03;;;;;;;;;;;8.90;99.90;;;;;;5094677;28;19920;-61
2022/04/28 02:22:28;;;;;;;;;;;8.90;99.90;;;;;;5095435;28;19924;-61
2022/04/28 02:24:54;;;;;;;;;;;8.80;99.90;;;;;;5095458;28;20316;-61
2022/04/28 02:27:20;;;;;;;;;;;8.90;99.90;;;;;;5095936;28;19928;-61
2022/04/28 02:29:45;;;;;;;;;;;8.90;99.90;;;;;;5095718;28;20397;-61
2022/04/28 02:32:11;;;;;;;;;;;8.90;99.90;;;;;;5095935;28;19963;-61
2022/04/28 02:34:36;;;;;;;;;;;8.80;99.90;;;;;;5095328;28;20302;-62
2022/04/28 02:37:02;;;;;;;;;;;8.90;99.90;;;;;;5095748;28;20011;-61
2022/04/28 02:39:28;;;;;;;;;;;8.90;99.90;;;;;;5095554;28;19927;-61
2022/04/28 02:41:53;;;;;;;;;;;8.80;99.90;;;;;;5095494;28;19924;-61
2022/04/28 02:44:19;;;;;;;;;;;8.80;99.90;;;;;;5095692;28;19947;-61
2022/04/28 02:46:45;;;;;;;;;;;8.80;99.90;;;;;;5095529;28;19920;-61
2022/04/28 02:49:11;;;;;;;;;;;8.80;99.90;;;;;;5095460;28;20012;-61
2022/04/28 02:51:37;;;;;;;;;;;8.80;99.90;;;;;;5095165;28;19931;-61
2022/04/28 02:54:03;;;;;;;;;;;8.80;99.90;;;;;;5095385;28;19924;-61
2022/04/28 02:56:29;;;;;;;;;;;8.90;99.90;;;;;;5094848;28;20424;-61
2022/04/28 02:58:54;;;;;;;;;;;8.90;99.90;;;;;;5095546;28;19970;-61
2022/04/28 03:01:20;;;;;;;;;;;8.90;99.90;;;;;;5095219;28;19966;-62
2022/04/28 03:03:46;;;;;;;;;;;8.80;99.90;;;;;;5095023;28;19931;-61
2022/04/28 03:11:41;;;;;;;;;;;9.00;99.90;;;;;;5094893;28;19965;-61
2022/04/28 03:14:07;;;;;;;;;;;8.90;99.90;;;;;;5094862;28;20014;-61
2022/04/28 03:16:33;;;;;;;;;;;8.90;99.90;;;;;;5094545;28;20038;-61
2022/04/28 03:18:58;;;;;;;;;;;8.90;99.90;;;;;;5094390;28;20372;-61
2022/04/28 03:21:24;;;;;;;;;;;8.80;99.90;;;;;;5094429;28;20010;-61
2022/04/28 03:23:49;;;;;;;;;;;8.80;99.90;;;;;;5094283;28;20332;-61
2022/04/28 03:26:15;;;;;;;;;;;8.80;99.90;;;;;;5094714;28;19924;-61
2022/04/28 03:28:40;;;;;;;;;;;8.80;99.90;;;;;;5094862;28;19923;-61
2022/04/28 03:31:06;;;;;;;;;;;8.80;99.90;;;;;;5094909;28;19925;-61
2022/04/28 03:33:32;;;;;;;;;;;8.70;99.90;;;;;;5094560;28;19926;-60
2022/04/28 03:35:58;;;;;;;;;;;8.70;99.90;;;;;;5076262;28;19971;-61
2022/04/28 03:38:24;;;;;;;;;;;8.70;99.90;;;;;;5094454;28;19920;-61
2022/04/28 03:40:49;;;;;;;;;;;8.70;99.90;;;;;;5094263;28;19920;-61
2022/04/28 03:43:15;;;;;;;;;;;8.70;99.90;;;;;;5094038;28;20289;-61
2022/04/28 03:45:41;;;;;;;;;;;8.70;99.90;;;;;;5094042;28;19920;-61
2022/04/28 03:48:09;;;;;;;;;;;8.80;99.90;;;;;;5094134;28;19973;-61
2022/04/28 03:50:35;;;;;;;;;;;8.70;99.90;;;;;;5094125;28;20003;-61
2022/04/28 03:53:01;;;;;;;;;;;8.70;99.90;;;;;;5094340;28;19920;-61
2022/04/28 03:55:27;;;;;;;;;;;8.70;99.90;;;;;;5094074;28;19931;-61
2022/04/28 03:57:52;;;;;;;;;;;8.70;99.90;;;;;;5094373;28;19920;-61
2022/04/28 04:00:19;;;;;;;;;;;8.80;99.90;;;;;;5093917;28;20042;-62
2022/04/28 04:02:44;;;;;;;;;;;8.80;99.90;;;;;;5093859;28;19973;-61
2022/04/28 04:05:10;;;;;;;;;;;8.70;99.90;;;;;;5075596;28;20389;-61
2022/04/28 04:07:39;;;;;;;;;;;8.70;99.90;;;;;;5092971;28;19920;-61
2022/04/28 04:10:05;;;;;;;;;;;8.70;99.90;;;;;;5093939;28;20340;-60
2022/04/28 04:12:31;;;;;;;;;;;8.70;99.90;;;;;;5093908;28;19927;-61
2022/04/28 04:14:57;;;;;;;;;;;8.60;99.90;;;;;;5075529;28;19924;-61
2022/04/28 04:17:22;;;;;;;;;;;8.70;99.90;;;;;;5093755;28;19920;-61
2022/04/28 04:19:48;;;;;;;;;;;8.70;99.90;;;;;;5093705;28;19926;-61
2022/04/28 04:22:14;;;;;;;;;;;8.70;99.90;;;;;;5093433;28;20075;-61
2022/04/28 04:24:40;;;;;;;;;;;8.70;99.90;;;;;;5093903;28;19924;-61
2022/04/28 04:27:06;;;;;;;;;;;8.70;99.90;;;;;;5093683;28;19920;-61
2022/04/28 04:29:32;;;;;;;;;;;8.70;99.90;;;;;;5093482;28;19943;-62
2022/04/28 04:34:41;;;;;;;;;;;8.90;99.90;;;;;;5093199;28;19920;-61
2022/04/28 04:37:07;;;;;;;;;;;8.80;99.90;;;;;;5093195;28;19924;-61
2022/04/28 04:39:33;;;;;;;;;;;8.80;99.90;;;;;;5075014;28;19920;-62
2022/04/28 04:41:58;;;;;;;;;;;8.90;99.90;;;;;;5093106;28;19920;-61
2022/04/28 04:44:24;;;;;;;;;;;8.90;99.90;;;;;;5093121;28;20288;-61
2022/04/28 04:46:49;;;;;;;;;;;8.90;99.90;;;;;;5093193;28;19968;-61
2022/04/28 04:49:15;;;;;;;;;;;8.90;99.90;;;;;;5093303;28;20328;-61
2022/04/28 04:51:40;;;;;;;;;;;9.00;99.90;;;;;;5093041;28;20317;-61
2022/04/28 04:54:06;;;;;;;;;;;9.00;99.90;;;;;;5093069;28;19927;-61
2022/04/28 04:56:33;;;;;;;;;;;8.90;99.90;;;;;;5075239;28;19924;-61
2022/04/28 04:58:59;;;;;;;;;;;9.00;99.90;;;;;;5074941;28;20429;-61
2022/04/28 05:01:24;;;;;;;;;;;8.90;99.90;;;;;;5092663;28;19935;-61
2022/04/28 05:03:50;;;;;;;;;;;8.90;99.90;;;;;;5092522;28;19920;-61
2022/04/28 05:06:16;;;;;;;;;;;8.90;99.90;;;;;;5090636;28;19970;-61
2022/04/28 05:08:41;;;;;;;;;;;8.90;99.90;;;;;;5092519;28;19971;-61
2022/04/28 05:11:07;;;;;;;;;;;8.80;99.90;;;;;;5092571;28;19931;-61
2022/04/28 05:13:32;;;;;;;;;;;8.80;99.90;;;;;;5074129;28;19920;-61
2022/04/28 05:15:58;;;;;;;;;;;8.80;99.90;;;;;;5092581;28;19920;-61
2022/04/28 05:18:23;;;;;;;;;;;8.90;99.90;;;;;;5092312;28;20439;-61
2022/04/28 05:20:50;;;;;;;;;;;8.80;99.90;;;;;;5092703;28;20358;-61
2022/04/28 05:23:16;;;;;;;;;;;8.80;99.90;;;;;;5092201;28;20385;-61
2022/04/28 05:25:42;;;;;;;;;;;8.90;99.90;;;;;;5092349;28;19920;-61
2022/04/28 05:28:08;;;;;;;;;;;8.80;99.90;;;;;;5092263;28;19926;-61
2022/04/28 05:30:33;;;;;;;;;;;8.80;99.90;;;;;;5092659;28;19920;-61
2022/04/28 05:32:59;;;;;;;;;;;8.90;99.90;;;;;;5092567;28;19920;-61
2022/04/28 05:35:24;;;;;;;;;;;8.90;99.90;;;;;;5092350;28;19920;-62
2022/04/28 05:37:50;;;;;;;;;;;8.90;99.90;;;;;;5093019;28;19924;-62
2022/04/28 05:40:16;;;;;;;;;;;8.90;99.90;;;;;;5092603;28;20384;-62
2022/04/28 05:48:10;;;;;;;;;;;8.90;99.90;;;;;;5092482;28;19920;-62
2022/04/28 05:50:40;;;;;;;;;;;8.80;99.90;;;;;;5091997;28;19942;-62
2022/04/28 05:53:05;;;;;;;;;;;8.80;99.90;;;;;;5092280;28;19920;-62
2022/04/28 05:55:31;;;;;;;;;;;8.90;99.90;;;;;;5092102;28;19927;-62
2022/04/28 05:57:58;;;;;;;;;;;8.80;99.90;;;;;;5092033;28;19920;-62
2022/04/28 06:00:28;;;;;;;;;;;8.80;99.90;;;;;;5092009;28;19920;-62
2022/04/28 06:02:53;;;;;;;;;;;8.90;99.90;;;;;;5092111;28;20022;-62
2022/04/28 06:05:19;;;;;;;;;;;8.90;99.90;;;;;;5092496;28;20003;-61
2022/04/28 06:07:44;;;;;;;;;;;8.90;99.90;;;;;;5091871;28;19927;-62
2022/04/28 06:10:10;;;;;;;;;;;9.00;99.90;;;;;;5092041;28;19920;-61
2022/04/28 06:12:36;;;;;;;;;;;9.10;99.90;;;;;;5092344;28;20015;-61
2022/04/28 06:15:02;;;;;;;;;;;9.20;99.90;;;;;;5092214;28;19945;-62
2022/04/28 06:17:27;;;;;;;;;;;9.30;99.90;;;;;;5092140;28;19924;-61
2022/04/28 06:19:53;;;;;;;;;;;9.50;99.90;;;;;;5091968;28;19931;-61
2022/04/28 06:22:18;;;;;;;;;;;9.60;99.90;;;;;;5091762;28;19924;-62
2022/04/28 06:24:44;;;;;;;;;;;9.90;99.90;;;;;;5092139;28;19997;-61
2022/04/28 06:27:10;;;;;;;;;;;10.20;99.90;;;;;;5092060;28;19980;-61
2022/04/28 06:29:36;;;;;;;;;;;10.60;99.90;;;;;;5092111;28;19921;-61
2022/04/28 06:32:01;;;;;;;;;;;10.80;99.90;;;;;;5077558;28;19927;-63
2022/04/28 06:34:27;;;;;;;;;;;11.10;99.90;;;;;;5095319;28;19974;-61
2022/04/28 06:36:52;;;;;;;;;;;11.20;99.90;;;;;;5095387;28;19924;-62
2022/04/28 06:39:18;;;;;;;;;;;11.40;99.90;;;;;;5095248;28;19967;-60
2022/04/28 06:41:44;;;;;;;;;;;11.80;99.90;;;;;;5095746;28;19920;-63
2022/04/28 06:44:09;;;;;;;;;;;11.60;99.90;;;;;;5095571;28;19924;-61
2022/04/28 06:46:35;;;;;;;;;;;11.60;99.90;;;;;;5095565;28;19931;-62
2022/04/28 06:49:01;;;;;;;;;;;11.90;99.90;;;;;;5096146;28;20364;-62
2022/04/28 06:51:27;;;;;;;;;;;12.10;99.90;;;;;;5077769;28;19927;-62
2022/04/28 06:53:52;;;;;;;;;;;12.20;99.90;;;;;;5095715;28;19923;-63
2022/04/28 06:56:18;;;;;;;;;;;12.00;99.90;;;;;;5095655;28;19920;-63
2022/04/28 06:58:43;;;;;;;;;;;11.90;99.90;;;;;;5095232;28;19963;-60
2022/04/28 07:01:09;;;;;;;;;;;11.80;99.90;;;;;;5094680;28;19920;-61
2022/04/28 07:03:34;;;;;;;;;;;12.10;99.90;;;;;;5077229;28;19968;-62
2022/04/28 07:06:00;;;;;;;;;;;12.10;99.90;;;;;;5095031;28;20392;-61
2022/04/28 07:08:26;;;;;;;;;;;12.00;99.90;;;;;;5094710;28;20418;-61
2022/04/28 07:10:51;;;;;;;;;;;12.50;99.90;;;;;;5076891;28;19920;-60
2022/04/28 07:13:17;;;;;;;;;;;12.30;99.90;;;;;;5095108;28;20381;-60
2022/04/28 07:15:43;;;;;;;;;;;12.30;99.90;;;;;;5076823;28;19920;-60
2022/04/28 07:18:09;;;;;;;;;;;12.10;99.90;;;;;;5094797;28;20370;-60
2022/04/28 07:20:35;;;;;;;;;;;11.90;99.90;;;;;;5059696;28;20000;-61
2022/04/28 07:23:01;;;;;;;;;;;12.10;99.90;;;;;;5094102;28;20065;-61
2022/04/28 07:25:27;;;;;;;;;;;12.30;99.90;;;;;;5094088;28;19927;-60
2022/04/28 07:27:53;;;;;;;;;;;12.00;99.90;;;;;;5094297;28;19920;-60
2022/04/28 07:30:20;;;;;;;;;;;12.00;99.90;;;;;;5094209;28;19927;-61
2022/04/28 07:32:46;;;;;;;;;;;11.80;99.90;;;;;;5094062;28;19927;-60
2022/04/28 07:35:11;;;;;;;;;;;11.50;99.90;;;;;;5059734;28;19921;-61
2022/04/28 07:37:37;;;;;;;;;;;11.30;99.90;;;;;;5094067;28;20450;-61
2022/04/28 07:40:03;;;;;;;;;;;11.20;99.90;;;;;;5093930;28;19963;-61
2022/04/28 07:42:29;;;;;;;;;;;11.20;99.90;;;;;;5075842;28;20285;-62
2022/04/28 07:44:55;;;;;;;;;;;11.30;99.90;;;;;;5094073;28;20003;-61
2022/04/28 07:47:20;;;;;;;;;;;11.50;99.90;;;;;;5094233;28;20346;-61
2022/04/28 07:49:46;;;;;;;;;;;11.40;99.90;;;;;;5059069;28;20038;-60
2022/04/28 07:52:11;;;;;;;;;;;11.50;99.90;;;;;;5093655;28;19920;-61
2022/04/28 07:54:37;;;;;;;;;;;11.50;99.90;;;;;;5094009;28;20278;-62
2022/04/28 07:57:03;;;;;;;;;;;11.40;99.90;;;;;;5093825;28;20053;-62
2022/04/28 07:59:28;;;;;;;;;;;11.40;99.90;;;;;;5093963;28;20002;-61
2022/04/28 08:01:54;;;;;;;;;;;11.40;99.90;;;;;;5093714;28;19973;-61
2022/04/28 08:04:19;;;;;;;;;;;11.40;99.90;;;;;;5093444;28;19927;-61
2022/04/28 08:06:45;;;;;;;;;;;11.60;99.90;;;;;;5093533;28;19924;-61
2022/04/28 08:09:10;;;;;;;;;;;11.40;99.90;;;;;;5093927;28;20327;-61
2022/04/28 08:11:38;;;;;;;;;;;11.40;99.90;;;;;;5093471;28;19942;-61
2022/04/28 08:14:03;;;;;;;;;;;11.20;99.90;;;;;;5093579;28;19920;-61
2022/04/28 08:16:29;;;;;;;;;;;11.40;99.90;;;;;;5093506;28;19920;-60
2022/04/28 08:18:54;;;;;;;;;;;11.90;99.90;;;;;;5093263;28;20078;-59
2022/04/28 08:21:21;;;;;;;;;;;12.40;99.90;;;;;;5093466;28;19965;-59
2022/04/28 08:23:47;;;;;;;;;;;13.20;99.90;;;;;;5092749;28;19934;-59
2022/04/28 08:26:12;;;;;;;;;;;14.80;99.90;;;;;;5093311;28;19920;-58
2022/04/28 08:28:38;;;;;;;;;;;15.10;99.90;;;;;;5093241;28;19967;-58
2022/04/28 08:31:04;;;;;;;;;;;14.60;99.90;;;;;;5093396;28;20042;-58
2022/04/28 08:33:29;;;;;;;;;;;14.20;99.90;;;;;;5093051;28;19920;-60
2022/04/28 08:35:55;;;;;;;;;;;13.90;99.90;;;;;;5092939;28;19965;-59
2022/04/28 08:38:21;;;;;;;;;;;14.10;99.90;;;;;;5093111;28;20388;-59
2022/04/28 08:40:48;;;;;;;;;;;13.80;99.90;;;;;;5092913;28;20331;-59
2022/04/28 08:43:14;;;;;;;;;;;13.90;99.90;;;;;;5092799;28;19924;-59
2022/04/28 08:46:50;;;;;;;;;;;13.80;99.90;;;;;;5092806;28;20271;-59
2022/04/28 08:48:29;;;;;;;;;;;13.80;99.90;;;;;;5092597;28;19924;-60
2022/04/28 08:50:54;;;;;;;;;;;13.90;99.90;;;;;;5092910;28;20316;-61
2022/04/28 08:53:20;;;;;;;;;;;14.00;99.90;;;;;;5092361;28;19924;-59
2022/04/28 08:55:45;;;;;;;;;;;13.60;99.90;;;;;;5092441;28;19920;-59
2022/04/28 08:58:11;;;;;;;;;;;13.90;99.90;;;;;;5092614;28;19927;-60
2022/04/28 09:00:37;;;;;;;;;;;14.30;99.90;;;;;;5092429;28;19924;-60
2022/04/28 09:03:03;;;;;;;;;;;15.30;99.90;;;;;;5092407;28;19923;-61
2022/04/28 09:05:31;;;;;;;;;;;16.10;99.90;;;;;;5092631;28;19920;-60
2022/04/28 09:07:56;;;;;;;;;;;16.20;99.90;;;;;;5092383;28;19927;-60
2022/04/28 09:10:29;;;;;;;;;;;15.80;99.90;;;;;;5092504;28;20007;-60
2022/04/28 09:12:58;;;;;;;;;;;15.50;99.90;;;;;;5092256;28;19985;-60
2022/04/28 09:15:23;;;;;;;;;;;15.00;99.90;;;;;;5074571;28;19926;-60
2022/04/28 09:17:49;;;;;;;;;;;15.00;99.90;;;;;;5092678;28;19920;-59
2022/04/28 09:20:15;;;;;;;;;;;14.90;99.90;;;;;;5092311;28;19920;-60
2022/04/28 09:22:42;;;;;;;;;;;15.10;99.90;;;;;;5092073;28;19960;-59
2022/04/28 09:25:09;;;;;;;;;;;14.60;99.90;;;;;;5092215;28;19924;-59
2022/04/28 09:27:34;;;;;;;;;;;14.60;99.90;;;;;;5092345;28;20015;-60
2022/04/28 09:30:00;;;;;;;;;;;14.60;99.90;;;;;;5092193;28;20002;-60
2022/04/28 09:32:26;;;;;;;;;;;14.60;99.90;;;;;;5090756;28;19920;-59
2022/04/28 09:34:53;;;;;;;;;;;14.70;99.90;;;;;;5092357;28;19920;-60
2022/04/28 09:37:23;;;;;;;;;;;14.40;99.90;;;;;;5092255;28;20336;-60
2022/04/28 09:42:40;;;;;;;;;;;14.20;99.90;;;;;;5091946;28;19924;-60
2022/04/28 09:45:06;;;;;;;;;;;14.20;99.90;;;;;;5092017;28;19920;-60
2022/04/28 09:47:32;;;;;;;;;;;14.20;99.90;;;;;;5092099;28;19924;-60
2022/04/28 09:49:58;;;;;;;;;;;14.20;99.90;;;;;;5091900;28;20377;-60
2022/04/28 09:52:24;;;;;;;;;;;14.00;99.90;;;;;;5092091;28;19946;-60
2022/04/28 09:54:50;;;;;;;;;;;14.00;99.90;;;;;;5091895;28;19923;-60
2022/04/28 09:57:17;;;;;;;;;;;13.80;99.90;;;;;;5091775;28;20388;-61
2022/04/28 09:59:44;;;;;;;;;;;13.80;99.90;;;;;;5092101;28;20003;-60
2022/04/28 10:02:12;;;;;;;;;;;13.90;99.90;;;;;;5092010;28;19920;-60
2022/04/28 10:04:39;;;;;;;;;;;14.00;99.90;;;;;;5091764;28;20371;-60
2022/04/28 10:07:06;;;;;;;;;;;14.20;99.90;;;;;;5095779;28;20344;-58
2022/04/28 10:09:32;;;;;;;;;;;14.50;99.90;;;;;;5095668;28;20373;-57
2022/04/28 10:11:59;;;;;;;;;;;14.60;99.90;;;;;;5095895;28;19943;-58
2022/04/28 10:14:25;;;;;;;;;;;14.40;99.90;;;;;;5095492;28;20374;-59
2022/04/28 10:16:50;;;;;;;;;;;14.60;99.90;;;;;;5060090;28;19927;-58
2022/04/28 10:19:21;;;;;;;;;;;14.40;99.90;;;;;;5095503;28;19920;-58
2022/04/28 10:21:50;;;;;;;;;;;14.30;99.90;;;;;;5095501;28;19925;-57
2022/04/28 10:32:54;;;;;;;;;;;14.70;99.90;;;;;;5095168;28;19920;-59
2022/04/28 10:35:38;;;;;;;;;;;14.30;99.90;;;;;;5077398;28;20449;-60
2022/04/28 10:38:04;;;;;;;;;;;14.40;99.90;;;;;;5095093;28;19920;-57
2022/04/28 10:40:35;;;;;;;;;;;14.60;99.90;;;;;;5094976;28;19965;-57
2022/04/28 10:43:01;;;;;;;;;;;14.60;99.90;;;;;;5095149;28;19947;-57
2022/04/28 10:45:28;;;;;;;;;;;14.60;99.90;;;;;;5076569;28;20370;-57
2022/04/28 10:48:31;;;;;;;;;;;14.60;99.90;;;;;;5095186;28;19940;-60
2022/04/28 10:50:59;;;;;;;;;;;14.60;99.90;;;;;;5094945;28;19920;-57
2022/04/28 10:53:25;;;;;;;;;;;14.50;99.90;;;;;;5076685;28;19920;-57
2022/04/28 10:55:52;;;;;;;;;;;14.40;99.90;;;;;;5094776;28;19927;-60
2022/04/28 10:58:18;;;;;;;;;;;14.20;99.90;;;;;;5094843;28;19924;-60
2022/04/28 11:00:51;;;;;;;;;;;14.40;99.90;;;;;;5094896;28;19920;-60
2022/04/28 11:03:36;;;;;;;;;;;14.50;99.90;;;;;;5094530;28;19928;-61
2022/04/28 11:06:07;;;;;;;;;;;14.40;99.90;;;;;;5094548;28;20374;-60
2022/04/28 11:08:34;;;;;;;;;;;14.50;99.90;;;;;;5076245;28;19927;-59
2022/04/28 11:11:03;;;;;;;;;;;14.10;99.90;;;;;;5094680;28;19920;-60
2022/04/28 11:13:30;;;;;;;;;;;14.30;99.90;;;;;;5094812;28;19924;-60
2022/04/28 11:15:55;;;;;;;;;;;14.50;99.90;;;;;;5094436;28;19971;-60
2022/04/28 11:18:21;;;;;;;;;;;14.40;99.90;;;;;;5094384;28;20004;-60
2022/04/28 11:20:46;;;;;;;;;;;14.70;99.90;;;;;;5094559;28;19924;-61
2022/04/28 11:23:12;;;;;;;;;;;14.50;99.90;;;;;;5094181;28;19967;-60
2022/04/28 11:25:37;;;;;;;;;;;14.40;99.90;;;;;;5094236;28;19924;-59
2022/04/28 11:28:03;;;;;;;;;;;14.70;99.90;;;;;;5094202;28;20002;-60
2022/04/28 11:30:28;;;;;;;;;;;14.80;99.90;;;;;;5094079;28;19973;-60
2022/04/28 11:32:57;;;;;;;;;;;14.70;99.90;;;;;;5094021;28;19920;-60
2022/04/28 11:35:28;;;;;;;;;;;14.50;99.90;;;;;;5094336;28;19943;-60
2022/04/28 11:37:54;;;;;;;;;;;14.30;99.90;;;;;;5094173;28;19924;-60
2022/04/28 11:40:20;;;;;;;;;;;14.20;99.90;;;;;;5094044;28;20010;-59
2022/04/28 11:42:45;;;;;;;;;;;14.30;99.90;;;;;;5093875;28;20011;-61
2022/04/28 11:45:11;;;;;;;;;;;14.40;99.90;;;;;;5094020;28;19924;-60
2022/04/28 11:47:42;;;;;;;;;;;14.40;99.90;;;;;;5093823;28;20411;-60
2022/04/28 11:50:16;;;;;;;;;;;14.70;99.90;;;;;;5093667;28;20325;-59
2022/04/28 11:52:42;;;;;;;;;;;15.30;99.90;;;;;;5093941;28;19924;-60
2022/04/28 11:55:08;;;;;;;;;;;15.50;99.90;;;;;;5094022;28;19939;-60
2022/04/28 11:57:39;;;;;;;;;;;15.80;99.90;;;;;;5094042;28;19962;-60
2022/04/28 12:00:10;;;;;;;;;;;15.50;99.90;;;;;;5093465;28;20281;-60
2022/04/28 12:02:36;;;;;;;;;;;15.00;99.90;;;;;;5093420;28;20366;-60
2022/04/28 12:05:03;;;;;;;;;;;14.70;99.90;;;;;;5092557;28;19928;-60
2022/04/28 12:07:30;;;;;;;;;;;14.80;99.90;;;;;;5093185;28;20278;-60
2022/04/28 12:15:24;;;;;;;;;;;14.70;99.90;;;;;;5091893;28;19920;-59
2022/04/28 12:20:53;;;;;;;;;;;14.80;99.90;;;;;;5085108;28;19931;-59
2022/04/28 12:23:33;;;;;;;;;;;15.00;99.90;;;;;;5086583;28;19931;-59
2022/04/28 12:26:03;;;;;;;;;;;14.80;99.90;;;;;;5092929;28;19921;-59
2022/04/28 12:28:29;;;;;;;;;;;15.10;99.90;;;;;;5090709;28;19920;-59
2022/04/28 12:30:55;;;;;;;;;;;15.00;99.90;;;;;;5092792;28;19989;-60
2022/04/28 12:33:21;;;;;;;;;;;15.30;99.90;;;;;;5092804;28;19920;-59
2022/04/28 12:35:47;;;;;;;;;;;15.20;99.90;;;;;;5093226;28;19920;-60
2022/04/28 12:38:22;;;;;;;;;;;15.00;99.90;;;;;;5093092;28;20007;-59
2022/04/28 12:40:48;;;;;;;;;;;15.00;99.90;;;;;;5092887;28;20007;-59
2022/04/28 12:43:33;;;;;;;;;;;14.90;99.90;;;;;;5093108;28;20010;-60
2022/04/28 12:45:59;;;;;;;;;;;14.90;99.90;;;;;;5093190;28;19990;-60
2022/04/28 12:48:26;;;;;;;;;;;14.90;99.90;;;;;;5092811;28;19924;-60
2022/04/28 12:51:11;;;;;;;;;;;15.00;99.90;;;;;;5092800;28;19999;-59
2022/04/28 12:53:37;;;;;;;;;;;15.10;99.90;;;;;;5092692;28;20007;-60
2022/04/28 12:56:03;;;;;;;;;;;16.30;99.90;;;;;;5092873;28;19924;-59
2022/04/28 12:58:29;;;;;;;;;;;15.80;99.90;;;;;;5092860;28;20472;-59
2022/04/28 13:00:55;;;;;;;;;;;15.50;99.90;;;;;;5092804;28;20010;-59
2022/04/28 13:03:29;;;;;;;;;;;15.30;99.90;;;;;;5092365;28;19946;-60
2022/04/28 13:05:55;;;;;;;;;;;15.30;99.90;;;;;;5092571;28;19965;-59
2022/04/28 13:08:21;;;;;;;;;;;15.20;99.90;;;;;;5092524;28;19923;-60
2022/04/28 13:10:46;;;;;;;;;;;15.00;99.90;;;;;;5092277;28;19924;-59
2022/04/28 13:13:12;;;;;;;;;;;15.10;99.90;;;;;;5092307;28;20011;-59
2022/04/28 13:15:37;;;;;;;;;;;15.00;99.90;;;;;;5092613;28;20322;-59
2022/04/28 13:18:03;;;;;;;;;;;15.50;99.90;;;;;;5092281;28;19920;-59
2022/04/28 13:20:29;;;;;;;;;;;15.70;99.90;;;;;;5092384;28;19920;-59
2022/04/28 13:22:54;;;;;;;;;;;16.60;99.90;;;;;;5092157;28;19931;-59
2022/04/28 13:25:20;;;;;;;;;;;16.50;99.90;;;;;;5092201;28;20014;-59
2022/04/28 13:27:46;;;;;;;;;;;16.20;99.90;;;;;;5092311;28;19924;-59
2022/04/28 13:30:13;;;;;;;;;;;16.20;99.90;;;;;;5092377;28;20351;-59
2022/04/28 13:32:39;;;;;;;;;;;15.80;99.90;;;;;;5092236;28;19924;-59
2022/04/28 13:35:05;;;;;;;;;;;15.70;99.90;;;;;;5092054;28;19946;-59
2022/04/28 13:37:30;;;;;;;;;;;16.30;99.90;;;;;;5092143;28;19989;-59
2022/04/28 13:39:56;;;;;;;;;;;16.60;99.90;;;;;;5094525;28;20382;-59
2022/04/28 13:42:22;;;;;;;;;;;16.30;99.90;;;;;;5096262;28;19951;-59
2022/04/28 13:44:47;;;;;;;;;;;16.00;99.90;;;;;;5096105;28;19935;-59
2022/04/28 13:47:13;;;;;;;;;;;15.80;99.90;;;;;;5096426;28;20290;-59
2022/04/28 13:49:38;;;;;;;;;;;15.70;99.90;;;;;;5096282;28;20301;-59
2022/04/28 13:52:04;;;;;;;;;;;15.90;99.90;;;;;;5096167;28;19920;-60
2022/04/28 13:54:30;;;;;;;;;;;16.80;99.90;;;;;;5096296;28;20022;-60
2022/04/28 13:56:55;;;;;;;;;;;16.70;99.90;;;;;;5096540;28;20329;-59
2022/04/28 13:59:21;;;;;;;;;;;16.60;99.90;;;;;;5096145;28;19920;-60
2022/04/28 14:01:46;;;;;;;;;;;16.30;99.90;;;;;;5077927;28;19931;-59
2022/04/28 14:04:14;;;;;;;;;;;16.20;99.90;;;;;;5077585;28;19924;-59
2022/04/28 14:06:39;;;;;;;;;;;16.00;99.90;;;;;;5095977;28;19924;-59
2022/04/28 14:09:05;;;;;;;;;;;15.70;99.90;;;;;;5093850;28;20271;-59
2022/04/28 14:11:32;;;;;;;;;;;15.50;99.90;;;;;;5095653;28;19920;-59
2022/04/28 14:13:58;;;;;;;;;;;15.50;99.90;;;;;;5095811;28;19920;-59
2022/04/28 14:16:24;;;;;;;;;;;15.30;99.90;;;;;;5095678;28;19989;-59
2022/04/28 14:18:49;;;;;;;;;;;15.10;99.90;;;;;;5095595;28;19920;-59
2022/04/28 14:21:15;;;;;;;;;;;15.60;99.90;;;;;;5095448;28;19963;-60
2022/04/28 14:23:41;;;;;;;;;;;15.30;99.90;;;;;;5095198;28;20392;-60
2022/04/28 14:26:07;;;;;;;;;;;16.10;99.90;;;;;;5095400;28;19928;-60
2022/04/28 14:28:33;;;;;;;;;;;16.30;99.90;;;;;;5095424;28;20003;-60
2022/04/28 14:30:58;;;;;;;;;;;16.40;99.90;;;;;;5095499;28;19926;-60
2022/04/28 14:33:24;;;;;;;;;;;16.40;99.90;;;;;;5095401;28;19960;-60
2022/04/28 14:35:50;;;;;;;;;;;16.00;99.90;;;;;;5095263;28;20446;-60
2022/04/28 14:38:18;;;;;;;;;;;15.90;99.90;;;;;;5095346;28;20380;-60
2022/04/28 14:40:44;;;;;;;;;;;15.80;99.90;;;;;;5095081;28;19920;-60
2022/04/28 14:43:10;;;;;;;;;;;15.30;99.90;;;;;;5076582;28;20289;-61
2022/04/28 14:45:35;;;;;;;;;;;15.60;99.90;;;;;;5095299;28;20405;-60
2022/04/28 14:48:01;;;;;;;;;;;15.80;99.90;;;;;;5095311;28;19924;-60
2022/04/28 14:53:12;;;;;;;;;;;15.80;99.90;;;;;;5094871;28;19975;-60
2022/04/28 14:55:38;;;;;;;;;;;15.60;99.90;;;;;;5095172;28;19924;-60
2022/04/28 14:58:07;;;;;;;;;;;15.50;99.90;;;;;;5077151;28;20365;-59
2022/04/28 15:00:33;;;;;;;;;;;15.90;99.90;;;;;;5077339;28;19927;-59